Time;durP1;ratioP1;P1;durP2;ratioP2;P2;SDS_P1;SDS_P2;PMS_P1;PMS_P2;Temp;Humidity;BMP_temperature;BMP_pressure;BME280_temperature;BME280_humidity;BME280_pressure;Samples;Min_cycle;Max_cycle;Signal;HPM_P1;HPM_P2
2021/07/19 00:02:04;;;;;;;21.12;13.38;;;;;;;18.58;80.70;97065.61;1774289;80;25773;-85
2021/07/19 00:04:41;;;;;;;15.98;12.93;;;;;;;18.49;80.71;97067.18;1770389;80;26777;-84
2021/07/19 00:07:08;;;;;;;21.35;12.98;;;;;;;18.45;80.95;97066.92;1768572;81;26358;-85
2021/07/19 00:09:35;;;;;;;15.83;12.58;;;;;;;18.43;81.02;97070.46;1770561;81;25707;-86
2021/07/19 00:12:05;;;;;;;21.77;12.78;;;;;;;18.43;81.12;97068.27;1770484;80;25743;-88
2021/07/19 00:14:33;;;;;;;16.70;13.62;;;;;;;18.40;81.10;97074.27;1770689;80;25719;-83
2021/07/19 00:17:00;;;;;;;15.38;13.03;;;;;;;18.34;81.11;97069.34;1770432;80;27370;-84
2021/07/19 00:19:26;;;;;;;18.57;13.55;;;;;;;18.33;81.25;97070.44;1770518;80;25745;-83
2021/07/19 00:21:53;;;;;;;18.80;12.78;;;;;;;18.33;81.37;97071.80;1770390;80;25723;-84
2021/07/19 00:24:20;;;;;;;15.72;13.28;;;;;;;18.31;81.39;97077.53;1770435;81;25697;-82
2021/07/19 00:26:47;;;;;;;21.30;12.95;;;;;;;18.31;81.50;97073.44;1770573;81;25713;-84
2021/07/19 00:29:14;;;;;;;19.05;13.32;;;;;;;18.32;81.51;97075.08;1770413;81;27404;-88
2021/07/19 00:31:41;;;;;;;20.62;13.60;;;;;;;18.29;81.35;97069.32;1770523;80;25795;-84
2021/07/19 00:34:07;;;;;;;15.35;12.35;;;;;;;18.26;81.48;97072.04;1770618;80;26187;-89
2021/07/19 00:36:34;;;;;;;17.32;13.25;;;;;;;18.24;81.63;97074.21;1770731;80;25924;-84
2021/07/19 00:39:05;;;;;;;18.25;12.70;;;;;;;18.23;81.71;97069.84;1762777;81;25725;-84
2021/07/19 00:41:33;;;;;;;15.90;12.43;;;;;;;18.28;81.80;97075.88;1741046;81;27567;-83
2021/07/19 00:43:59;;;;;;;16.37;13.05;;;;;;;18.31;81.83;97076.17;1767625;81;25689;-85
2021/07/19 00:46:26;;;;;;;14.40;12.80;;;;;;;18.34;81.78;97074.27;1770551;81;25723;-82
2021/07/19 00:48:53;;;;;;;15.13;13.00;;;;;;;18.38;81.71;97074.53;1770679;80;26519;-83
2021/07/19 00:51:20;;;;;;;17.52;12.85;;;;;;;18.39;81.68;97072.63;1753216;81;25757;-86
2021/07/19 00:53:46;;;;;;;14.15;12.58;;;;;;;18.38;81.70;97071.80;1770504;80;27416;-85
2021/07/19 00:56:16;;;;;;;17.80;12.50;;;;;;;18.40;81.70;97068.80;1770538;80;26196;-88
2021/07/19 00:58:46;;;;;;;21.02;12.37;;;;;;;18.41;81.73;97067.72;1770721;80;25866;-82
2021/07/19 01:01:13;;;;;;;16.25;12.98;;;;;;;18.42;81.71;97066.63;1770107;80;25807;-81
2021/07/19 01:03:42;;;;;;;17.62;12.93;;;;;;;18.43;81.73;97073.20;1770279;80;26583;-80
2021/07/19 01:06:09;;;;;;;21.10;12.63;;;;;;;18.44;81.71;97073.47;1770543;80;27362;-90
2021/07/19 01:08:37;;;;;;;15.93;12.68;;;;;;;18.44;81.67;97068.55;1773407;80;25702;-86
2021/07/19 01:11:04;;;;;;;13.43;12.03;;;;;;;18.42;81.65;97062.53;1724871;81;26590;-80
2021/07/19 01:13:32;;;;;;;16.75;13.13;;;;;;;18.36;81.55;97062.50;1775244;80;25769;-85
2021/07/19 01:15:59;;;;;;;18.80;13.65;;;;;;;18.33;81.70;97057.59;1776388;80;25232;-86
2021/07/19 01:18:25;;;;;;;15.95;12.43;;;;;;;18.36;81.83;97063.05;1776222;80;28034;-81
2021/07/19 01:21:07;;;;;;;14.45;12.93;;;;;;;18.34;81.78;97061.98;1776260;80;26236;-80
2021/07/19 01:24:01;;;;;;;15.95;13.40;;;;;;;18.34;81.87;97061.98;1776405;80;25785;-81
2021/07/19 01:27:06;;;;;;;14.68;12.90;;;;;;;18.32;81.90;97058.69;1776325;80;26474;-81
2021/07/19 01:29:37;;;;;;;18.12;12.33;;;;;;;18.33;81.92;97058.14;1776001;80;25800;-80
2021/07/19 01:32:06;;;;;;;16.67;12.25;;;;;;;18.33;82.04;97057.59;1770563;80;28312;-81
2021/07/19 01:34:34;;;;;;;18.77;12.93;;;;;;;18.35;81.98;97062.22;1761147;80;25742;-84
2021/07/19 01:37:03;;;;;;;14.98;12.82;;;;;;;18.36;81.99;97057.03;1776400;80;25263;-89
2021/07/19 01:39:39;;;;;;;15.98;13.38;;;;;;;18.34;81.95;97066.08;1772899;80;25735;-90
2021/07/19 01:42:04;;;;;;;14.28;12.30;;;;;;;18.32;81.97;97066.88;1775221;80;25818;-83
2021/07/19 01:44:32;;;;;;;16.42;12.58;;;;;;;18.27;81.90;97066.85;1776378;80;27370;-85
2021/07/19 01:47:00;;;;;;;17.77;12.95;;;;;;;18.28;82.01;97066.31;1773215;80;26729;-87
2021/07/19 01:49:29;;;;;;;20.72;13.40;;;;;;;18.32;82.07;97068.25;1776288;79;25790;-89
2021/07/19 01:51:56;;;;;;;15.05;12.75;;;;;;;18.38;82.01;97077.27;1776162;80;25695;-85
2021/07/19 01:54:23;;;;;;;14.20;12.70;;;;;;;18.41;81.91;97078.10;1776420;80;25695;-88
2021/07/19 01:56:51;;;;;;;19.05;13.85;;;;;;;18.41;81.84;97073.18;1750807;80;27341;-82
2021/07/19 01:59:20;;;;;;;18.23;15.48;;;;;;;18.39;81.81;97076.72;1776127;79;25778;-81
2021/07/19 02:01:47;;;;;;;17.60;14.00;;;;;;;18.38;81.81;97073.71;1754503;80;25282;-85
2021/07/19 02:04:14;;;;;;;18.45;14.25;;;;;;;18.35;81.83;97070.42;1779040;80;26549;-81
2021/07/19 02:06:42;;;;;;;19.73;15.58;;;;;;;18.33;81.86;97079.45;1751989;80;25766;-81
2021/07/19 02:09:11;;;;;;;19.87;14.20;;;;;;;18.32;81.90;97081.09;1749804;80;27440;-90
2021/07/19 02:11:38;;;;;;;21.20;14.75;;;;;;;18.33;81.96;97075.36;1770039;80;25749;-87
2021/07/19 02:14:08;;;;;;;20.02;14.07;;;;;;;18.35;82.01;97079.98;1761658;80;25781;-89
2021/07/19 02:16:40;;;;;;;21.20;14.35;;;;;;;18.32;81.94;97076.98;1755778;80;25843;-90
2021/07/19 02:19:08;;;;;;;20.23;15.10;;;;;;;18.30;82.11;97079.98;1761059;80;26439;-88
2021/07/19 02:21:36;;;;;;;18.95;15.08;;;;;;;18.26;82.11;97082.97;1778662;80;27374;-89
2021/07/19 02:24:04;;;;;;;18.27;14.95;;;;;;;18.23;82.23;97090.33;1748297;80;25885;-91
2021/07/19 02:26:31;;;;;;;18.75;14.40;;;;;;;18.26;82.33;97088.98;1767657;80;26309;-84
2021/07/19 02:28:58;;;;;;;19.30;15.13;;;;;;;18.24;82.35;97083.77;1750424;80;26402;-82
2021/07/19 02:31:26;;;;;;;17.82;15.32;;;;;;;18.25;82.43;97088.16;1765100;80;25766;-88
2021/07/19 02:33:56;;;;;;;21.55;16.42;;;;;;;18.22;82.40;97088.71;1752807;80;27361;-83
2021/07/19 02:36:23;;;;;;;21.85;17.02;;;;;;;18.22;82.44;97091.98;1748241;80;26455;-87
2021/07/19 02:38:53;;;;;;;20.70;16.05;;;;;;;18.25;82.54;97090.06;1770226;80;25662;-84
2021/07/19 02:41:25;;;;;;;19.30;15.63;;;;;;;18.26;82.51;97087.06;1762287;79;25734;-82
2021/07/19 02:43:55;;;;;;;25.72;15.83;;;;;;;18.27;82.55;97083.79;1763059;80;25693;-84
2021/07/19 02:46:25;;;;;;;18.80;15.50;;;;;;;18.24;82.55;97084.31;1761539;80;27529;-83
2021/07/19 02:48:55;;;;;;;18.90;16.10;;;;;;;18.20;82.51;97081.86;1761414;80;25792;-83
2021/07/19 02:51:23;;;;;;;19.75;15.90;;;;;;;18.18;82.57;97079.94;1761453;80;25737;-90
2021/07/19 02:53:52;;;;;;;22.13;15.72;;;;;;;18.21;82.69;97082.97;1761604;80;25709;-81
2021/07/19 02:56:21;;;;;;;19.85;16.12;;;;;;;18.24;82.72;97082.41;1761504;80;25713;-87
2021/07/19 02:58:48;;;;;;;20.52;14.75;;;;;;;18.27;82.71;97080.52;1761556;80;27545;-83
2021/07/19 03:01:19;;;;;;;20.27;15.50;;;;;;;18.30;82.72;97078.62;1761725;80;26198;-88
2021/07/19 03:03:51;;;;;;;19.73;15.55;;;;;;;18.32;82.71;97084.64;1757703;80;26249;-84
2021/07/19 03:06:21;;;;;;;17.85;15.25;;;;;;;18.29;82.63;97081.08;1753292;80;25970;-84
2021/07/19 03:08:49;;;;;;;19.55;16.45;;;;;;;18.25;82.63;97081.86;1740183;80;25740;-86
2021/07/19 03:11:26;;;;;;;17.98;16.07;;;;;;;18.26;82.77;97081.60;1755965;80;27438;-82
2021/07/19 03:13:59;;;;;;;20.60;15.32;;;;;;;18.26;82.79;97078.87;1755703;80;26381;-85
2021/07/19 03:16:28;;;;;;;17.98;15.45;;;;;;;18.28;82.86;97078.06;1755790;80;25766;-82
2021/07/19 03:18:58;;;;;;;18.98;16.00;;;;;;;18.32;82.91;97080.55;1726262;81;26541;-81
2021/07/19 03:21:26;;;;;;;20.55;15.93;;;;;;;18.38;82.86;97084.64;1755928;80;25707;-84
2021/07/19 03:23:55;;;;;;;22.30;16.48;;;;;;;18.43;82.76;97081.94;1755958;80;27378;-83
2021/07/19 03:26:23;;;;;;;20.37;15.75;;;;;;;18.47;82.66;97082.51;1755805;80;26021;-86
2021/07/19 03:28:51;;;;;;;21.07;16.12;;;;;;;18.50;82.57;97075.66;1755786;80;25674;-82
2021/07/19 03:31:20;;;;;;;21.20;16.07;;;;;;;18.51;82.58;97073.20;1755916;80;26321;-85
2021/07/19 03:33:49;;;;;;;21.45;16.35;;;;;;;18.51;82.55;97073.20;1755993;80;25231;-82
2021/07/19 03:36:17;;;;;;;22.00;15.65;;;;;;;18.48;82.49;97071.00;1755871;80;27337;-82
2021/07/19 03:38:45;;;;;;;20.30;15.50;;;;;;;18.46;82.52;97074.58;1755892;80;25840;-82
2021/07/19 03:41:13;;;;;;;20.95;16.75;;;;;;;18.44;82.61;97074.02;1755899;80;25708;-83
2021/07/19 03:43:43;;;;;;;18.27;15.18;;;;;;;18.46;82.67;97078.67;1755975;80;26425;-81
2021/07/19 03:46:11;;;;;;;22.62;15.75;;;;;;;18.46;82.76;97073.20;1755937;80;25744;-84
2021/07/19 03:48:38;;;;;;;17.85;14.78;;;;;;;18.44;82.70;97078.94;1755707;80;27383;-83
2021/07/19 03:51:06;;;;;;;18.73;15.28;;;;;;;18.44;82.81;97072.66;1744318;80;25792;-85
2021/07/19 03:53:33;;;;;;;18.52;14.73;;;;;;;18.43;82.82;97075.92;1746630;80;25243;-84
2021/07/19 03:56:02;;;;;;;21.07;15.38;;;;;;;18.47;82.77;97078.95;1752124;80;25762;-81
2021/07/19 03:58:32;;;;;;;21.20;14.80;;;;;;;18.48;82.75;97078.66;1738661;80;25883;-84
2021/07/19 04:01:01;;;;;;;16.17;14.30;;;;;;;18.50;82.78;97079.75;1755919;80;27427;-83
2021/07/19 04:03:32;;;;;;;18.85;15.00;;;;;;;18.52;82.77;97082.50;1756014;80;25867;-82
2021/07/19 04:06:01;;;;;;;17.42;13.98;;;;;;;18.54;82.82;97078.95;1737013;81;25787;-81
2021/07/19 04:08:32;;;;;;;16.45;14.18;;;;;;;18.55;82.77;97083.88;1757707;81;26286;-88
2021/07/19 04:10:59;;;;;;;17.57;14.30;;;;;;;18.55;82.83;97083.34;1737577;81;25706;-84
2021/07/19 04:13:27;;;;;;;17.57;14.70;;;;;;;18.55;82.88;97089.34;1758854;81;26833;-82
2021/07/19 04:15:54;;;;;;;16.40;14.70;;;;;;;18.57;82.96;97084.44;1737381;81;25794;-87
2021/07/19 04:18:21;;;;;;;18.30;14.78;;;;;;;18.60;82.94;97086.64;1737522;81;25683;-82
2021/07/19 04:20:54;;;;;;;20.27;15.03;;;;;;;18.62;82.93;97077.62;1753337;81;26311;-83
2021/07/19 04:23:22;;;;;;;17.75;14.78;;;;;;;18.65;83.04;97086.12;1741601;81;25753;-82
2021/07/19 04:25:50;;;;;;;17.32;15.25;;;;;;;18.69;83.07;97081.77;1752374;81;27554;-83
2021/07/19 04:28:22;;;;;;;16.48;14.10;;;;;;;18.76;82.98;97083.39;1743750;80;25983;-87
2021/07/19 04:30:51;;;;;;;20.05;14.98;;;;;;;18.80;82.97;97082.59;1737524;81;25946;-82
2021/07/19 04:33:23;;;;;;;19.30;14.15;;;;;;;18.85;82.80;97077.11;1759035;81;25696;-86
2021/07/19 04:35:50;;;;;;;18.25;15.05;;;;;;;18.88;82.68;97071.11;1749316;81;25706;-91
2021/07/19 04:38:21;;;;;;;19.02;13.88;;;;;;;18.90;82.66;97069.47;1746604;81;28197;-95
2021/07/19 04:40:53;;;;;;;15.95;14.33;;;;;;;18.90;82.67;97073.03;1768155;80;25789;-84
2021/07/19 04:43:21;;;;;;;17.60;14.55;;;;;;;18.92;82.76;97073.58;1746434;81;34813;-83
2021/07/19 04:45:49;;;;;;;18.23;15.80;;;;;;;18.93;82.82;97069.75;1748757;81;25751;-88
2021/07/19 04:48:16;;;;;;;19.48;16.05;;;;;;;18.94;82.93;97070.03;1756605;81;25812;-85
2021/07/19 04:50:45;;;;;;;15.70;13.58;;;;;;;18.94;82.88;97067.30;1739841;81;27424;-95
2021/07/19 04:53:12;;;;;;;17.52;14.28;;;;;;;18.93;82.74;97068.39;1737623;81;25722;-82
2021/07/19 04:55:46;;;;;;;15.63;13.28;;;;;;;18.95;82.85;97066.20;1763914;81;25675;-82
2021/07/19 04:58:16;;;;;;;17.52;14.85;;;;;;;18.94;82.80;97067.30;1735591;80;25789;-81
2021/07/19 05:00:48;;;;;;;17.75;13.15;;;;;;;18.95;82.82;97068.94;1767579;81;25728;-81
2021/07/19 05:03:16;;;;;;;16.47;13.63;;;;;;;18.97;82.86;97072.20;1736472;81;27928;-80
2021/07/19 05:05:45;;;;;;;18.37;13.35;;;;;;;19.02;82.95;97074.95;1767187;80;25288;-82
2021/07/19 05:08:14;;;;;;;16.73;13.13;;;;;;;19.04;82.84;97075.50;1781891;80;25779;-84
2021/07/19 05:10:42;;;;;;;16.65;13.00;;;;;;;19.06;82.76;97077.42;1781969;80;25673;-83
2021/07/19 05:13:10;;;;;;;20.12;11.00;;;;;;;19.08;82.80;97080.44;1782158;80;25744;-84
2021/07/19 05:15:40;;;;;;;13.22;10.53;;;;;;;19.06;82.62;97082.08;1782272;79;27367;-86
2021/07/19 05:18:09;;;;;;;12.82;10.53;;;;;;;19.08;82.40;97083.17;1742033;80;25821;-83
2021/07/19 05:20:37;;;;;;;13.75;9.85;;;;;;;19.04;82.24;97086.45;1754213;80;25690;-81
2021/07/19 05:23:04;;;;;;;14.23;10.45;;;;;;;19.00;82.20;97081.23;1782224;80;25673;-84
2021/07/19 05:25:32;;;;;;;14.83;10.95;;;;;;;19.02;82.23;97088.63;1782287;80;25696;-80
2021/07/19 05:28:12;;;;;;;13.60;9.90;;;;;;;19.03;82.24;97095.74;1782033;80;27426;-85
2021/07/19 05:30:48;;;;;;;14.75;11.08;;;;;;;19.05;82.21;97090.83;1742210;80;25833;-86
2021/07/19 05:33:19;;;;;;;16.00;10.20;;;;;;;19.10;82.27;97089.16;1767976;80;25713;-83
2021/07/19 05:35:46;;;;;;;13.55;10.30;;;;;;;19.11;82.12;97090.81;1776477;80;26912;-85
2021/07/19 05:38:14;;;;;;;13.60;10.60;;;;;;;19.12;82.09;97095.19;1776351;80;25769;-81
2021/07/19 05:40:42;;;;;;;15.20;10.45;;;;;;;19.13;82.05;97096.83;1776493;80;27376;-86
2021/07/19 05:43:09;;;;;;;14.35;10.00;;;;;;;19.15;81.92;97099.58;1757323;80;26218;-83
2021/07/19 05:45:40;;;;;;;12.45;9.20;;;;;;;19.17;81.80;97103.41;1767269;80;25661;-83
2021/07/19 05:48:08;;;;;;;12.03;8.90;;;;;;;19.17;81.69;97108.88;1762736;80;25836;-84
2021/07/19 05:50:35;;;;;;;11.88;8.95;;;;;;;19.15;81.57;97105.05;1756080;81;25788;-84
2021/07/19 05:53:02;;;;;;;13.65;9.53;;;;;;;19.14;81.54;97106.69;1751915;81;27315;-84
2021/07/19 05:55:29;;;;;;;14.50;9.40;;;;;;;19.15;81.62;97114.63;1763661;81;25745;-85
2021/07/19 05:57:59;;;;;;;15.72;9.38;;;;;;;19.18;81.71;97112.72;1749771;80;25702;-85
2021/07/19 06:00:27;;;;;;;16.65;10.35;;;;;;;19.21;81.74;97109.95;1761715;78;25749;-84
2021/07/19 06:02:54;;;;;;;11.78;9.33;;;;;;;19.20;81.56;97110.50;1765521;79;25309;-83
2021/07/19 06:05:21;;;;;;;13.55;9.10;;;;;;;19.21;81.55;97110.78;1744892;80;27437;-85
2021/07/19 06:07:48;;;;;;;14.58;9.43;;;;;;;19.26;81.64;97111.34;1750870;78;25757;-83
2021/07/19 06:10:16;;;;;;;12.53;9.15;;;;;;;19.24;81.69;97106.68;1756668;78;25703;-82
2021/07/19 06:12:43;;;;;;;13.13;9.13;;;;;;;19.27;81.67;97108.88;1756043;81;25804;-84
2021/07/19 06:15:12;;;;;;;11.90;9.50;;;;;;;19.33;81.53;97111.33;1756050;80;25343;-84
2021/07/19 06:17:40;;;;;;;11.78;8.78;;;;;;;19.39;81.44;97113.53;1755963;80;27326;-86
2021/07/19 06:20:16;;;;;;;13.13;8.80;;;;;;;19.41;81.31;97116.27;1750893;80;25757;-82
2021/07/19 06:22:44;;;;;;;12.85;8.48;;;;;;;19.41;81.38;97118.19;1739466;81;25749;-83
2021/07/19 06:25:14;;;;;;;13.35;8.23;;;;;;;19.43;81.29;97119.56;1746836;80;26388;-84
2021/07/19 06:27:43;;;;;;;12.13;8.58;;;;;;;19.45;81.33;97120.63;1756073;80;25718;-84
2021/07/19 06:30:13;;;;;;;14.03;9.28;;;;;;;19.47;81.29;97128.02;1758140;80;27424;-83
2021/07/19 06:32:41;;;;;;;14.68;9.08;;;;;;;19.52;81.23;97125.32;1788566;78;25770;-88
2021/07/19 06:35:09;;;;;;;12.45;9.00;;;;;;;19.54;81.01;97128.61;1787061;79;25693;-84
2021/07/19 06:37:36;;;;;;;12.40;9.05;;;;;;;19.55;80.89;97124.78;1787253;79;26317;-84
2021/07/19 06:40:06;;;;;;;15.63;9.28;;;;;;;19.57;80.80;97128.58;1787145;79;26302;-83
2021/07/19 06:42:34;;;;;;;19.85;9.58;;;;;;;19.58;80.72;97134.34;1787327;79;27346;-89
2021/07/19 06:45:00;;;;;;;15.75;9.35;;;;;;;19.61;80.74;97133.79;1794688;77;25696;-84
2021/07/19 06:47:28;;;;;;;16.05;9.68;;;;;;;19.63;80.68;97137.91;1787159;79;25743;-83
2021/07/19 06:49:55;;;;;;;14.07;8.85;;;;;;;19.67;80.53;97144.48;1791113;79;25808;-85
2021/07/19 06:52:22;;;;;;;20.30;9.45;;;;;;;19.66;80.41;97141.47;1787147;79;25662;-84
2021/07/19 06:54:49;;;;;;;12.75;9.13;;;;;;;19.65;80.27;97132.98;1791912;79;27359;-85
2021/07/19 06:57:17;;;;;;;17.75;8.78;;;;;;;19.66;80.26;97145.57;1786997;79;25849;-85
2021/07/19 06:59:43;;;;;;;15.48;9.28;;;;;;;19.68;80.18;97143.94;1760211;80;25753;-85
2021/07/19 07:02:10;;;;;;;19.00;10.18;;;;;;;19.67;80.11;97149.95;1745151;80;25792;-85
2021/07/19 07:04:36;;;;;;;14.73;9.58;;;;;;;19.67;79.92;97149.95;1774045;78;26577;-83
2021/07/19 07:07:04;;;;;;;15.00;9.90;;;;;;;19.65;79.93;97145.30;1776149;78;28236;-86
2021/07/19 07:09:32;;;;;;;13.98;10.10;;;;;;;19.66;79.84;97152.42;1756591;80;25872;-84
2021/07/19 07:11:59;;;;;;;16.17;10.00;;;;;;;19.65;79.63;97150.77;1742306;80;25757;-85
2021/07/19 07:14:25;;;;;;;13.60;9.35;;;;;;;19.64;79.52;97149.13;1793271;78;25822;-84
2021/07/19 07:16:52;;;;;;;17.35;9.80;;;;;;;19.62;79.45;97154.60;1761533;81;25750;-84
2021/07/19 07:19:19;;;;;;;15.65;9.93;;;;;;;19.59;79.41;97153.23;1756725;80;27450;-85
2021/07/19 07:21:46;;;;;;;16.52;9.78;;;;;;;19.58;79.41;97154.32;1741895;80;43857;-84
2021/07/19 07:24:13;;;;;;;15.65;9.85;;;;;;;19.54;79.36;97151.88;1761466;80;25827;-87
2021/07/19 07:26:39;;;;;;;15.48;10.60;;;;;;;19.53;79.40;97150.78;1768167;80;25835;-84
2021/07/19 07:29:06;;;;;;;13.55;9.95;;;;;;;19.54;79.42;97155.98;1795870;78;25680;-85
2021/07/19 07:31:33;;;;;;;13.60;9.38;;;;;;;19.54;79.38;97150.51;1792950;79;27389;-84
2021/07/19 07:34:01;;;;;;;17.37;10.38;;;;;;;19.55;79.31;97145.86;1792769;79;25760;-85
2021/07/19 07:36:30;;;;;;;17.73;10.65;;;;;;;19.48;79.30;97140.61;1795683;77;26398;-91
2021/07/19 07:38:57;;;;;;;18.02;11.00;;;;;;;19.50;79.37;97143.94;1761556;80;25768;-90
2021/07/19 07:41:24;;;;;;;15.20;11.00;;;;;;;19.52;79.23;97138.19;1763513;80;25759;-86
2021/07/19 07:43:50;;;;;;;18.98;10.68;;;;;;;19.56;79.21;97144.19;1793015;78;27406;-86
2021/07/19 07:46:17;;;;;;;19.85;11.03;;;;;;;19.67;79.33;97145.03;1760775;80;25707;-85
2021/07/19 07:48:44;;;;;;;16.45;10.35;;;;;;;19.76;79.20;97142.81;1764115;78;25773;-86
2021/07/19 07:51:11;;;;;;;17.32;11.22;;;;;;;19.87;79.17;97142.80;1744548;80;25775;-91
2021/07/19 07:53:38;;;;;;;19.35;11.80;;;;;;;19.94;79.26;97137.84;1765532;78;25634;-85
2021/07/19 07:56:05;;;;;;;19.62;10.93;;;;;;;20.03;79.10;97142.49;1761385;80;28325;-86
2021/07/19 07:58:34;;;;;;;14.15;11.10;;;;;;;20.14;79.01;97144.10;1778085;78;25732;-87
2021/07/19 08:01:01;;;;;;;18.00;10.53;;;;;;;20.22;78.84;97143.25;1744353;80;25753;-92
2021/07/19 08:03:28;;;;;;;17.67;10.65;;;;;;;20.29;78.83;97145.95;1790663;79;26506;-89
2021/07/19 08:05:54;;;;;;;19.98;10.13;;;;;;;20.31;78.55;97145.13;1755096;78;25837;-91
2021/07/19 08:08:21;;;;;;;18.73;10.05;;;;;;;20.34;78.32;97147.31;1767148;78;27480;-88
2021/07/19 08:10:50;;;;;;;16.73;9.40;;;;;;;20.34;78.06;97148.69;1763635;78;25821;-88
2021/07/19 08:13:16;;;;;;;17.05;10.00;;;;;;;20.35;77.93;97145.39;1773740;78;25765;-90
2021/07/19 08:15:47;;;;;;;16.00;9.75;;;;;;;20.39;77.96;97146.52;1768910;79;25786;-85
2021/07/19 08:18:11;;;;;;;15.32;10.20;;;;;;;20.46;77.93;97142.36;1775363;78;25724;-84
2021/07/19 08:20:38;;;;;;;18.77;10.15;;;;;;;20.56;78.14;97139.30;1783728;78;27336;-90
2021/07/19 08:23:05;;;;;;;15.28;10.93;;;;;;;20.65;78.04;97133.52;1775490;78;25683;-86
2021/07/19 08:25:31;;;;;;;18.10;10.50;;;;;;;20.74;78.13;97131.27;1775108;78;26540;-88
2021/07/19 08:27:58;;;;;;;19.82;11.05;;;;;;;20.86;77.88;97122.69;1755785;80;25720;-86
2021/07/19 08:30:25;;;;;;;25.27;11.43;;;;;;;20.97;77.63;97127.55;1774345;80;25770;-88
2021/07/19 08:32:51;;;;;;;18.82;11.40;;;;;;;21.05;77.36;97125.57;1776046;78;27411;-89
2021/07/19 08:35:20;;;;;;;15.80;10.95;;;;;;;21.11;77.21;97122.52;1775683;78;26067;-87
2021/07/19 08:37:47;;;;;;;17.67;11.08;;;;;;;21.17;76.98;97122.73;1769795;78;25767;-90
2021/07/19 08:40:20;;;;;;;16.87;10.70;;;;;;;21.24;76.84;97126.58;1769201;78;25730;-86
2021/07/19 08:42:46;;;;;;;17.05;10.78;;;;;;;21.25;76.48;97119.16;1776248;78;25650;-84
2021/07/19 08:45:13;;;;;;;16.37;10.38;;;;;;;21.25;76.34;97120.53;1774138;78;27347;-84
2021/07/19 08:47:44;;;;;;;17.82;10.10;;;;;;;21.25;76.26;97118.61;1756500;78;25852;-85
2021/07/19 08:50:13;;;;;;;15.98;9.73;;;;;;;21.25;76.15;97119.16;1776102;80;25726;-88
2021/07/19 08:52:42;;;;;;;20.05;10.50;;;;;;;21.27;76.01;97119.67;1755528;80;25712;-87
2021/07/19 08:55:11;;;;;;;17.20;9.55;;;;;;;21.26;75.90;97124.89;1757316;79;25855;-91
2021/07/19 08:57:46;;;;;;;13.18;9.23;;;;;;;21.25;75.79;97123.28;1746902;80;28166;-90
2021/07/19 09:00:12;;;;;;;14.78;10.13;;;;;;;21.24;75.85;97122.45;1775002;78;25265;-86
2021/07/19 09:02:39;;;;;;;13.90;9.80;;;;;;;21.21;75.67;97116.16;1772526;78;25702;-90
2021/07/19 09:05:07;;;;;;;15.18;10.63;;;;;;;21.13;75.77;97120.28;1768029;78;25691;-85
2021/07/19 09:07:33;;;;;;;16.73;9.63;;;;;;;21.11;75.68;97117.03;1745706;81;25726;-91
2021/07/19 09:10:00;;;;;;;16.95;9.55;;;;;;;21.10;75.60;97118.69;1766339;80;27333;-89
2021/07/19 09:12:44;;;;;;;21.85;10.25;;;;;;;21.07;75.56;97115.95;1769142;80;25887;-87
2021/07/19 09:15:13;;;;;;;13.28;9.25;;;;;;;21.08;75.54;97110.73;1778194;80;25778;-88
2021/07/19 09:17:41;;;;;;;16.07;10.25;;;;;;;21.07;75.44;97113.20;1761706;81;25735;-89
2021/07/19 09:20:13;;;;;;;14.95;9.85;;;;;;;21.05;75.40;97115.41;1749513;80;25745;-87
2021/07/19 09:22:40;;;;;;;14.95;9.93;;;;;;;21.04;75.45;97116.52;1761932;79;27534;-88
2021/07/19 09:25:17;;;;;;;19.65;10.38;;;;;;;21.03;75.43;97110.76;1789425;78;25884;-89
2021/07/19 09:28:11;;;;;;;17.90;10.72;;;;;;;21.05;75.47;97113.22;1770646;80;25868;-85
2021/07/19 09:30:46;;;;;;;14.18;10.20;;;;;;;21.04;75.41;97108.84;1781349;79;25743;-88
2021/07/19 09:33:14;;;;;;;12.73;9.20;;;;;;;21.03;75.43;97109.39;1782346;78;25679;-92
2021/07/19 09:35:46;;;;;;;12.43;8.90;;;;;;;21.08;75.44;97112.11;1761325;80;27347;-94
2021/07/19 09:38:16;;;;;;;16.37;9.78;;;;;;;21.20;75.53;97112.59;1761332;80;26344;-86
2021/07/19 09:40:45;;;;;;;14.78;9.53;;;;;;;21.39;75.58;97110.51;1757108;80;25758;-88
2021/07/19 09:43:24;;;;;;;14.45;9.83;;;;;;;21.58;75.40;97107.89;1792161;79;25684;-89
2021/07/19 09:46:07;;;;;;;11.43;8.83;;;;;;;21.75;75.26;97107.70;1792267;80;25702;-90
2021/07/19 09:48:35;;;;;;;13.70;8.88;;;;;;;21.91;75.03;97107.82;1792972;80;27435;-91
2021/07/19 09:51:03;;;;;;;9.65;8.48;;;;;;;22.28;75.43;97097.53;1793217;78;26258;-87
2021/07/19 09:53:35;;;;;;;14.75;8.88;;;;;;;22.67;74.61;97099.79;1792021;80;26458;-86
2021/07/19 09:56:15;;;;;;;15.18;8.40;;;;;;;22.99;73.89;97102.64;1780556;78;25809;-85
2021/07/19 09:58:45;;;;;;;12.53;8.85;;;;;;;23.29;73.54;97099.98;1770637;78;25674;-88
2021/07/19 10:01:12;;;;;;;11.57;8.23;;;;;;;23.25;72.53;97099.76;1759795;80;27489;-85
2021/07/19 10:03:39;;;;;;;12.63;8.63;;;;;;;23.21;72.69;97093.20;1774969;80;25826;-89
2021/07/19 10:06:08;;;;;;;16.10;8.93;;;;;;;23.23;72.32;97097.86;1793600;78;25847;-84
2021/07/19 10:08:35;;;;;;;14.80;8.88;;;;;;;23.21;71.73;97087.70;1773231;78;25728;-85
2021/07/19 10:11:06;;;;;;;16.23;8.90;;;;;;;23.21;71.59;97082.20;1763050;78;25785;-85
2021/07/19 10:13:35;;;;;;;13.13;7.58;;;;;;;23.24;71.43;97076.09;1770237;78;27503;-85
2021/07/19 10:16:03;;;;;;;12.65;8.73;;;;;;;23.26;71.12;97075.80;1755850;80;26291;-84
2021/07/19 10:18:34;;;;;;;10.80;7.85;;;;;;;23.23;70.68;97071.70;1747453;80;26548;-84
2021/07/19 10:21:01;;;;;;;16.15;7.85;;;;;;;23.19;70.51;97073.41;1775714;79;25768;-85
2021/07/19 10:23:28;;;;;;;13.58;8.65;;;;;;;23.18;70.62;97069.05;1781625;79;25763;-88
2021/07/19 10:25:55;;;;;;;9.58;7.30;;;;;;;23.15;70.42;97069.64;1776172;79;27357;-84
2021/07/19 10:28:22;;;;;;;8.95;7.55;;;;;;;23.14;70.48;97069.38;1753052;80;25734;-88
2021/07/19 10:30:49;;;;;;;13.00;7.95;;;;;;;23.18;70.36;97066.85;1754361;80;25732;-91
2021/07/19 10:33:15;;;;;;;10.48;7.30;;;;;;;23.30;70.35;97066.64;1785512;79;26425;-85
2021/07/19 10:35:43;;;;;;;12.47;7.10;;;;;;;23.42;69.94;97071.67;1768514;80;25260;-92
2021/07/19 10:38:20;;;;;;;10.30;7.97;;;;;;;23.50;69.68;97071.53;1754065;80;28197;-85
2021/07/19 10:40:52;;;;;;;14.43;7.55;;;;;;;23.56;69.42;97073.09;1755582;80;25822;-85
2021/07/19 10:43:19;;;;;;;12.18;7.75;;;;;;;23.55;69.06;97070.08;1769769;80;25875;-85
2021/07/19 10:45:51;;;;;;;13.35;7.55;;;;;;;23.48;69.06;97064.13;1762896;80;25763;-85
2021/07/19 10:48:31;;;;;;;12.45;7.50;;;;;;;23.41;69.37;97060.95;1767705;79;25815;-88
2021/07/19 10:51:02;;;;;;;11.15;6.95;;;;;;;23.23;68.95;97053.80;1750078;80;28313;-89
2021/07/19 10:53:33;;;;;;;9.88;7.35;;;;;;;23.29;69.09;97045.73;1781043;78;26400;-85
2021/07/19 10:56:07;;;;;;;13.45;7.85;;;;;;;23.54;68.93;97038.17;1782198;78;26279;-85
2021/07/19 10:58:48;;;;;;;10.95;7.42;;;;;;;23.86;69.18;97035.34;1765652;80;25860;-86
2021/07/19 11:01:28;;;;;;;9.80;6.62;;;;;;;24.26;68.68;97045.33;1750238;80;26581;-85
2021/07/19 11:03:58;;;;;;;8.33;6.50;;;;;;;24.48;68.09;97037.68;1767598;80;27466;-87
2021/07/19 11:06:38;;;;;;;9.33;6.80;;;;;;;24.49;67.72;97036.55;1756114;81;25890;-88
2021/07/19 11:09:10;;;;;;;10.58;7.00;;;;;;;24.31;66.44;97030.03;1761361;81;25777;-89
2021/07/19 11:11:40;;;;;;;11.20;7.05;;;;;;;24.17;67.23;97034.15;1761285;78;26518;-84
2021/07/19 11:14:22;;;;;;;10.30;6.55;;;;;;;23.98;67.30;97037.03;1761587;80;25817;-86
2021/07/19 11:16:54;;;;;;;11.83;6.35;;;;;;;23.85;67.23;97032.89;1806525;78;28239;-85
2021/07/19 11:19:39;;;;;;;8.33;6.30;;;;;;;23.68;67.62;97030.72;1781199;80;25537;-87
2021/07/19 11:22:25;;;;;;;9.93;6.50;;;;;;;23.59;67.74;97022.91;1761411;80;25709;-84
2021/07/19 11:24:55;;;;;;;11.48;7.20;;;;;;;23.49;68.13;97025.83;1761192;81;26456;-85
2021/07/19 11:27:38;;;;;;;9.18;6.90;;;;;;;23.43;68.45;97028.39;1761242;80;25672;-88
2021/07/19 11:30:23;;;;;;;11.48;8.05;;;;;;;23.43;68.28;97031.15;1786723;78;27375;-84